createdAt,value
2022-08-05T20:42:21.521Z,15.47
2022-08-05T21:14:47.774Z,15.42
2022-08-05T21:15:50.972Z,15.38
2022-08-05T21:16:51.923Z,15.33
2022-08-05T21:17:53.787Z,15.33
2022-08-05T21:18:54.324Z,15.33
2022-08-05T21:20:03.070Z,15.33
2022-08-05T21:21:11.132Z,15.28
2022-08-05T21:22:12.496Z,15.28
2022-08-05T21:23:17.877Z,15.23
2022-08-05T21:24:19.441Z,15.23
2022-08-05T21:25:20.535Z,15.13
2022-08-05T21:26:21.074Z,15.13
2022-08-05T21:27:38.713Z,15.08
2022-08-05T21:28:41.142Z,15.08
2022-08-05T21:29:51.596Z,15.03
2022-08-05T21:30:54.200Z,14.99
2022-08-05T21:31:54.766Z,14.99
2022-08-05T21:32:56.270Z,14.99
2022-08-05T21:33:56.811Z,14.94
2022-08-05T21:35:08.528Z,14.94
2022-08-05T21:36:58.696Z,14.94
2022-08-05T21:37:59.259Z,14.89
2022-08-05T21:38:59.818Z,14.89
2022-08-05T21:40:00.718Z,14.84
2022-08-05T21:41:01.257Z,14.84
2022-08-05T21:42:04.755Z,14.79
2022-08-05T21:43:05.504Z,14.79
2022-08-05T21:44:26.907Z,14.74
2022-08-05T21:45:51.997Z,14.69
2022-08-05T21:47:04.281Z,14.59
2022-08-05T21:48:59.763Z,14.55
2022-08-05T21:50:01.379Z,14.55
2022-08-05T21:51:02.507Z,14.5
2022-08-05T21:52:28.270Z,14.5
2022-08-05T21:53:29.593Z,14.5
2022-08-05T21:54:30.958Z,14.45
2022-08-05T21:55:43.335Z,14.4
2022-08-05T21:57:32.239Z,14.35
2022-08-05T21:58:34.592Z,14.4
2022-08-05T22:00:03.691Z,14.4
2022-08-05T22:01:12.065Z,14.35
2022-08-05T22:02:26.670Z,14.3
2022-08-05T22:03:48.190Z,14.3
2022-08-05T22:04:54.353Z,14.4
2022-08-05T22:05:54.894Z,14.4
2022-08-05T22:06:55.449Z,14.4
2022-08-05T22:08:01.991Z,14.45
2022-08-05T22:09:13.396Z,14.45
2022-08-05T22:10:25.668Z,14.45
2022-08-05T22:11:33.198Z,14.45
2022-08-05T22:12:36.425Z,14.45
2022-08-05T22:14:07.021Z,14.45
2022-08-05T22:15:57.283Z,14.4
2022-08-05T22:17:56.560Z,14.45
2022-08-05T22:19:00.804Z,14.45
2022-08-05T22:20:11.351Z,14.45
2022-08-05T22:21:19.024Z,14.45
2022-08-05T22:22:27.558Z,14.45
2022-08-05T22:24:01.474Z,14.4
2022-08-05T22:26:09.477Z,14.4
2022-08-05T22:27:16.726Z,14.35
2022-08-05T22:28:18.229Z,14.35
2022-08-05T22:29:18.999Z,14.3
2022-08-05T22:30:35.461Z,14.25
2022-08-05T22:31:59.280Z,14.2
2022-08-05T22:33:04.047Z,14.2
2022-08-05T22:34:20.263Z,14.16
2022-08-05T22:35:31.189Z,14.11
2022-08-05T22:36:49.830Z,14.06
2022-08-05T22:37:58.440Z,14.06
2022-08-05T22:39:04.222Z,14.01
2022-08-05T22:40:10.854Z,14.01
2022-08-05T22:41:26.104Z,13.96
2022-08-05T22:43:36.441Z,13.86
2022-08-05T22:44:38.741Z,13.86
2022-08-05T22:45:39.324Z,13.86
2022-08-05T22:46:41.053Z,13.86
2022-08-05T22:47:49.640Z,13.76
2022-08-05T22:48:57.521Z,13.72
2022-08-05T22:50:18.802Z,13.76
2022-08-05T22:52:02.805Z,13.67
2022-08-05T22:53:35.739Z,13.67
2022-08-05T22:54:36.927Z,13.62
2022-08-05T22:55:56.861Z,13.57
2022-08-05T22:56:59.945Z,13.57
2022-08-05T22:58:00.492Z,13.52
2022-08-05T22:59:03.327Z,13.52
2022-08-05T23:00:54.793Z,13.47
2022-08-05T23:02:05.315Z,13.47
2022-08-05T23:03:08.741Z,13.37
2022-08-05T23:04:14.320Z,13.37
2022-08-05T23:05:15.265Z,13.37
2022-08-05T23:06:15.955Z,13.33
2022-08-05T23:07:19.641Z,13.33
2022-08-05T23:08:22.944Z,13.28
2022-08-05T23:09:52.929Z,13.28
2022-08-05T23:11:03.275Z,13.23
2022-08-05T23:12:03.824Z,13.23
2022-08-05T23:13:04.344Z,13.18
2022-08-05T23:14:05.329Z,13.18
2022-08-05T23:15:08.645Z,13.18
2022-08-05T23:16:12.325Z,13.13
2022-08-05T23:17:12.857Z,13.13
2022-08-05T23:18:38.535Z,13.08
2022-08-05T23:19:50.961Z,13.03
2022-08-05T23:20:56.958Z,13.03
2022-08-05T23:21:58.915Z,13.03
2022-08-05T23:22:59.443Z,13.03
2022-08-05T23:24:00.020Z,12.98
2022-08-05T23:25:12.033Z,12.93
2022-08-05T23:26:55.880Z,12.98
2022-08-05T23:28:00.606Z,12.93
2022-08-05T23:29:01.519Z,12.93
2022-08-05T23:30:10.617Z,12.89
2022-08-05T23:31:16.817Z,12.93
2022-08-05T23:32:22.644Z,12.93
2022-08-05T23:33:26.637Z,12.89
2022-08-05T23:35:07.436Z,12.89
2022-08-05T23:36:10.095Z,12.89
2022-08-05T23:37:14.481Z,12.84
2022-08-05T23:38:16.956Z,12.89
2022-08-05T23:39:32.377Z,12.84
2022-08-05T23:40:55.433Z,12.79
2022-08-05T23:41:56.242Z,12.79
2022-08-05T23:42:57.054Z,12.79
2022-08-05T23:44:03.289Z,12.74
2022-08-05T23:45:14.065Z,12.74
2022-08-05T23:46:19.672Z,12.69
2022-08-05T23:47:23.321Z,12.69
2022-08-05T23:48:26.385Z,12.74
2022-08-05T23:49:34.006Z,12.69
2022-08-05T23:50:38.272Z,12.64
2022-08-05T23:51:39.145Z,12.59
2022-08-05T23:52:52.003Z,12.54
2022-08-05T23:54:01.215Z,12.5
2022-08-05T23:55:02.114Z,12.4
2022-08-05T23:56:09.305Z,12.3
2022-08-05T23:57:10.301Z,12.2
2022-08-05T23:58:31.233Z,12.15
2022-08-05T23:59:37.444Z,12.06
